メインページ
METAR-TAF:

METAR-TAF

空港 :

ピッツバーグ, ペンシルバニア州, アメリカ合衆国

ピッツバーグ国際空港

緯度: 40-30-14N, 経度: 080-15-59W, 海抜: 366m

現時点の気象観測

当レポートは48分前の09:51(UTC)に作成
西の風 17kt、最大22ktの突風を伴う
気温 3°C
湿度 93%
気圧 1003 hPa
視程: 16.1km
高度1700ftの曇り

METAR: KPIT 190951Z 27017G22KT 10SM OVC017 03/02 A2961 RMK AO2 PK WND 29027/0917 RAE38DZB38E50 SLP039 P0000 T00330017 $

時間: 05:39 (10:39 UTC)

予報

当レポートは1時間37分前の09:02(UTC)に作成
予報は19日の 09時(UTC)から 20日の 12時(UTC)まで有効
西/北西の風 20kt、最大30ktの突風を伴う
視程: 10km
高度1500ftの曇り
弱いにわか雨
19日の 1200時(UTC)から
西/北西の風 20kt、最大30ktの突風を伴う
視程: 10km
高度2000ftの曇り
19日の 1900時(UTC)から
西/北西の風 15kt、最大25ktの突風を伴う
視程: 10km
高度2000ftの曇り
弱いにわか雪
20日の 0000時(UTC)から
西の風 12kt、最大22ktの突風を伴う
視程: 10km
高度2500ftの曇り
20日の 0800時(UTC)から
西の風 12kt
視程: 10km
高度3500ftの千切れ雲あり

TAF: KPIT 190902Z 1909/2012 29020G30KT P6SM -SHRA OVC015 FM191200 29020G30KT P6SM OVC020 FM191900 29015G25KT P6SM -SHSN OVC020 FM200000 28012G22KT P6SM OVC025 FM200800 26012KT P6SM BKN035

4,000以上の空港の気象観測と天気予報(METAR報とTAF報)

利用可能な観測所は地図上に黄色い丸と赤い丸で示す。

丸の上にカーソルを重ねると観測所名を参照できる。

次にクリックすると気象観測と天気予報を参照できる。

マップの切り替え:黒色「×」印の緑ボタンをクリックして拡大、「-」印の緑ボタンをクリックして縮小、緑色の三角印をクリックして隣りの地図に切り替え


METAR-TAF: